Time;durP1;ratioP1;P1;durP2;ratioP2;P2;SDS_P1;SDS_P2;PMS_P1;PMS_P2;Temp;Humidity;BMP_temperature;BMP_pressure;BME280_temperature;BME280_humidity;BME280_pressure;Samples;Min_cycle;Max_cycle;Signal;HPM_P1;HPM_P2
2021/06/11 00:01:54;;;;;;;5.95;3.90;;;;;;;26.58;42.22;99630.19;4484126;32;33888;-65
2021/06/11 00:04:22;;;;;;;11.63;3.85;;;;;;;26.58;41.86;99622.84;4483855;32;33843;-66
2021/06/11 00:06:50;;;;;;;9.82;4.30;;;;;;;26.57;42.08;99626.63;4483531;32;34096;-66
2021/06/11 00:09:18;;;;;;;8.60;4.03;;;;;;;26.57;42.24;99626.63;4483784;32;33833;-67
2021/06/11 00:11:46;;;;;;;9.00;3.90;;;;;;;26.57;42.30;99628.53;4483813;32;34761;-67
2021/06/11 00:14:13;;;;;;;5.10;3.80;;;;;;;26.56;42.35;99641.38;4483948;32;33743;-67
2021/06/11 00:16:41;;;;;;;7.87;4.05;;;;;;;26.56;41.88;99630.44;4483764;32;32987;-66
2021/06/11 00:19:09;;;;;;;8.07;4.00;;;;;;;26.56;42.23;99632.34;4483742;32;33660;-67
2021/06/11 00:21:36;;;;;;;7.30;3.60;;;;;;;26.57;42.38;99636.75;4483706;32;33736;-66
2021/06/11 00:24:05;;;;;;;6.75;3.83;;;;;;;26.56;41.95;99626.87;4483683;32;33526;-67
2021/06/11 00:26:33;;;;;;;7.22;3.78;;;;;;;26.55;42.30;99628.78;4483712;32;33521;-66
2021/06/11 00:29:00;;;;;;;5.95;3.75;;;;;;;26.55;42.27;99628.78;4483895;32;33919;-64
2021/06/11 00:31:28;;;;;;;9.95;4.10;;;;;;;26.55;42.18;99623.31;4483730;32;33825;-65
2021/06/11 00:33:56;;;;;;;7.50;3.78;;;;;;;26.55;42.18;99628.78;4483445;32;33766;-66
2021/06/11 00:36:23;;;;;;;7.72;4.10;;;;;;;26.55;42.35;99634.28;4483745;32;34834;-66
2021/06/11 00:38:51;;;;;;;7.12;3.50;;;;;;;26.55;42.43;99634.28;4483711;32;34215;-66
2021/06/11 00:41:19;;;;;;;6.12;3.97;;;;;;;26.55;42.51;99642.47;4483383;32;33833;-66
2021/06/11 00:43:46;;;;;;;7.93;4.10;;;;;;;26.54;42.36;99637.28;4483550;32;34027;-65
2021/06/11 00:46:14;;;;;;;6.87;4.10;;;;;;;26.55;42.36;99647.12;4483587;32;34623;-65
2021/06/11 00:48:42;;;;;;;5.97;4.12;;;;;;;26.55;42.47;99638.91;4483486;32;33522;-66
2021/06/11 00:51:09;;;;;;;6.25;3.67;;;;;;;26.54;42.47;99638.09;4483605;32;33830;-67
2021/06/11 00:53:37;;;;;;;7.00;4.25;;;;;;;26.54;42.49;99632.63;4483536;32;33751;-64
2021/06/11 00:56:05;;;;;;;5.62;3.67;;;;;;;26.54;42.52;99629.06;4483563;32;34211;-66
2021/06/11 00:58:32;;;;;;;7.15;3.67;;;;;;;26.54;42.32;99629.06;4483402;32;34465;-65
2021/06/11 01:01:00;;;;;;;5.87;3.42;;;;;;;26.53;42.16;99630.13;4483318;32;34495;-66
2021/06/11 01:03:30;;;;;;;7.35;4.00;;;;;;;26.53;42.45;99641.06;4483278;32;33558;-67
2021/06/11 01:05:57;;;;;;;5.68;3.62;;;;;;;26.54;42.27;99637.28;4483392;32;34362;-65
2021/06/11 01:08:25;;;;;;;6.03;3.70;;;;;;;26.53;42.49;99624.62;4483190;32;34343;-66
2021/06/11 01:10:53;;;;;;;7.97;4.18;;;;;;;26.52;42.56;99632.03;4481899;32;33808;-67
2021/06/11 01:13:20;;;;;;;5.65;3.67;;;;;;;26.52;42.60;99628.47;4481965;32;33890;-66
2021/06/11 01:15:49;;;;;;;6.20;3.67;;;;;;;26.52;42.62;99640.22;4481790;32;32633;-66
2021/06/11 01:18:20;;;;;;;6.85;3.90;;;;;;;26.52;42.57;99631.19;4469617;32;34477;-66
2021/06/11 01:20:48;;;;;;;8.18;3.83;;;;;;;26.52;42.58;99633.94;4483811;32;33917;-66
2021/06/11 01:23:34;;;;;;;6.65;4.05;;;;;;;26.51;42.40;99632.28;4485077;32;34390;-65
2021/06/11 01:26:11;;;;;;;5.68;3.70;;;;;;;26.53;42.38;99628.19;4483806;32;33295;-64
2021/06/11 01:28:39;;;;;;;6.72;3.75;;;;;;;26.50;42.39;99622.44;4485043;32;33787;-67
2021/06/11 01:31:07;;;;;;;7.82;4.60;;;;;;;26.50;41.92;99622.44;4483633;32;34900;-66
2021/06/11 01:33:35;;;;;;;6.37;3.55;;;;;;;26.49;41.81;99618.00;4484786;32;35052;-65
2021/06/11 01:36:11;;;;;;;7.45;3.90;;;;;;;26.47;42.10;99610.06;4483594;32;34056;-64
2021/06/11 01:38:40;;;;;;;6.35;4.00;;;;;;;26.49;42.09;99610.66;4483630;31;33686;-65
2021/06/11 01:41:09;;;;;;;6.80;3.65;;;;;;;26.48;42.30;99610.88;4483643;32;33895;-64
2021/06/11 01:43:36;;;;;;;7.80;3.72;;;;;;;26.50;41.89;99611.47;4483564;32;33783;-66
2021/06/11 01:46:07;;;;;;;6.07;3.78;;;;;;;26.48;42.20;99608.16;4470752;32;33838;-66
2021/06/11 01:48:34;;;;;;;6.53;3.50;;;;;;;26.47;42.08;99615.53;4470974;32;33809;-64
2021/06/11 01:51:02;;;;;;;7.50;3.85;;;;;;;26.48;42.20;99610.88;4470525;32;34485;-65
2021/06/11 01:53:30;;;;;;;7.97;3.50;;;;;;;26.47;42.21;99611.97;4483570;32;34322;-64
2021/06/11 01:55:58;;;;;;;8.02;3.97;;;;;;;26.46;42.24;99616.62;4483674;32;34831;-65
2021/06/11 01:58:26;;;;;;;5.78;3.55;;;;;;;26.48;42.22;99619.09;4470717;32;33710;-66
2021/06/11 02:00:54;;;;;;;7.87;4.03;;;;;;;26.46;42.11;99616.62;4483389;32;33879;-65
2021/06/11 02:03:23;;;;;;;5.12;3.70;;;;;;;26.47;42.13;99618.28;4484735;32;33798;-63
2021/06/11 02:05:52;;;;;;;7.00;3.60;;;;;;;26.45;42.08;99615.81;4470747;32;33871;-66
2021/06/11 02:08:20;;;;;;;7.10;3.67;;;;;;;26.45;42.14;99618.53;4483557;32;33600;-66
2021/06/11 02:10:48;;;;;;;6.68;3.75;;;;;;;26.47;42.22;99620.19;4470253;32;34773;-65
2021/06/11 02:13:15;;;;;;;10.10;4.45;;;;;;;26.44;42.37;99622.34;4484829;32;35172;-66
2021/06/11 02:15:43;;;;;;;7.12;4.05;;;;;;;26.45;42.44;99615.81;4483910;32;34254;-65
2021/06/11 02:18:12;;;;;;;5.32;3.58;;;;;;;26.45;41.94;99613.06;4470337;32;33578;-65
2021/06/11 02:20:40;;;;;;;5.78;3.70;;;;;;;26.44;42.37;99616.88;4485036;32;34648;-64
2021/06/11 02:23:07;;;;;;;5.20;3.60;;;;;;;26.46;42.41;99624.84;4483253;32;34068;-65
2021/06/11 02:25:35;;;;;;;6.18;3.58;;;;;;;26.45;42.52;99623.19;4484458;32;33346;-65
2021/06/11 02:28:03;;;;;;;6.22;3.58;;;;;;;26.44;42.38;99627.00;4483302;32;33957;-66
2021/06/11 02:30:30;;;;;;;6.22;3.47;;;;;;;26.44;42.41;99622.34;4482025;32;33745;-66
2021/06/11 02:32:58;;;;;;;5.82;3.55;;;;;;;26.44;42.18;99629.75;4484312;32;33486;-66
2021/06/11 02:35:26;;;;;;;5.57;3.75;;;;;;;26.44;42.34;99627.00;4483274;32;33366;-65
2021/06/11 02:37:53;;;;;;;9.82;3.85;;;;;;;26.42;42.06;99640.88;4484600;32;33554;-65
2021/06/11 02:40:22;;;;;;;7.65;4.25;;;;;;;26.42;42.30;99640.06;4484252;32;34689;-67
2021/06/11 02:42:55;;;;;;;7.47;3.55;;;;;;;26.43;42.17;99644.47;4484523;32;34723;-66
2021/06/11 02:45:25;;;;;;;5.90;3.60;;;;;;;26.42;42.30;99638.16;4483095;32;33374;-65
2021/06/11 02:48:12;;;;;;;;;;;;;;;26.43;42.42;99628.88;4484775;32;34624;-66
2021/06/11 02:50:43;;;;;;;5.62;3.70;;;;;;;26.54;42.22;99637.28;4484605;32;34041;-65
2021/06/11 02:53:10;;;;;;;6.35;3.37;;;;;;;26.45;42.31;99632.22;4482989;32;33642;-66
2021/06/11 02:55:38;;;;;;;7.47;3.65;;;;;;;26.43;42.23;99634.34;4470013;32;33320;-66
2021/06/11 02:58:17;;;;;;;6.05;3.65;;;;;;;26.43;42.25;99634.34;4470635;32;33451;-66
2021/06/11 03:00:45;;;;;;;8.43;3.60;;;;;;;26.45;42.27;99654.09;4484341;32;33830;-65
2021/06/11 03:03:17;;;;;;;11.27;3.67;;;;;;;26.44;42.29;99646.16;4483137;32;33473;-63
2021/06/11 03:05:44;;;;;;;10.82;3.50;;;;;;;26.42;42.33;99651.00;4484263;32;33307;-63
2021/06/11 03:08:13;;;;;;;7.32;3.47;;;;;;;26.44;42.31;99655.19;4484247;32;33717;-66
2021/06/11 03:10:44;;;;;;;9.05;3.60;;;;;;;26.42;42.25;99656.47;4483200;32;34624;-65
2021/06/11 03:13:12;;;;;;;6.53;3.28;;;;;;;26.41;42.23;99658.37;4467450;32;34494;-63
2021/06/11 03:15:39;;;;;;;5.53;3.50;;;;;;;26.41;42.14;99661.12;4469376;32;33466;-64
2021/06/11 03:18:10;;;;;;;8.07;3.53;;;;;;;26.41;42.12;99663.84;4469365;32;34475;-65
2021/06/11 03:20:38;;;;;;;;;;;;;;;26.41;42.19;99652.91;4469200;32;33466;-64
2021/06/11 03:23:13;;;;;;;6.60;3.40;;;;;;;26.53;41.91;99649.28;4482310;32;34721;-61
2021/06/11 03:25:44;;;;;;;5.72;3.75;;;;;;;26.45;41.90;99656.84;4482094;32;34341;-65
2021/06/11 03:28:17;;;;;;;10.25;3.55;;;;;;;26.42;41.98;99653.72;4468904;32;34794;-64
2021/06/11 03:30:51;;;;;;;6.50;3.22;;;;;;;26.40;42.04;99648.53;4471008;32;34738;-65
2021/06/11 03:33:21;;;;;;;6.20;3.62;;;;;;;26.41;42.03;99652.09;4482954;32;33632;-63
2021/06/11 03:36:10;;;;;;;7.03;3.37;;;;;;;26.42;42.05;99661.94;4482276;32;34382;-62
2021/06/11 03:38:38;;;;;;;7.80;3.33;;;;;;;26.41;41.97;99661.12;4483636;32;33702;-62
2021/06/11 03:41:06;;;;;;;4.72;3.12;;;;;;;26.43;41.93;99664.44;4482971;32;33855;-62
2021/06/11 03:43:34;;;;;;;5.97;3.45;;;;;;;26.43;41.92;99660.88;4469049;32;33908;-61
2021/06/11 03:46:02;;;;;;;6.65;3.37;;;;;;;26.42;41.98;99656.47;4483786;32;34351;-62
2021/06/11 03:48:30;;;;;;;7.00;3.65;;;;;;;26.42;41.99;99654.56;4482315;32;34373;-65
2021/06/11 03:50:57;;;;;;;5.45;3.42;;;;;;;26.43;41.99;99667.19;4469452;32;33490;-67
2021/06/11 03:53:25;;;;;;;6.28;3.87;;;;;;;26.41;41.67;99671.22;4469752;32;33917;-66
2021/06/11 03:56:00;;;;;;;9.80;3.65;;;;;;;26.40;41.59;99667.69;4482518;32;34471;-66
2021/06/11 03:58:30;;;;;;;8.50;3.25;;;;;;;26.41;41.43;99672.06;4482650;32;33615;-67
2021/06/11 04:00:58;;;;;;;8.55;3.37;;;;;;;26.39;41.29;99662.44;4469827;32;34392;-68
2021/06/11 04:03:27;;;;;;;8.35;2.97;;;;;;;26.38;41.20;99668.97;4469544;32;33942;-65
2021/06/11 04:06:04;;;;;;;6.00;3.05;;;;;;;26.36;40.91;99666.50;4483828;32;34294;-67
2021/06/11 04:08:33;;;;;;;6.03;2.65;;;;;;;26.37;41.01;99657.22;4484013;32;34498;-67
2021/06/11 04:11:02;;;;;;;6.27;3.00;;;;;;;26.35;40.84;99653.91;4482417;32;34664;-68
2021/06/11 04:13:55;;;;;;;6.65;2.97;;;;;;;26.34;40.98;99654.97;4482654;32;33808;-67
2021/06/11 04:16:30;;;;;;;5.28;2.70;;;;;;;26.36;41.01;99652.00;4482975;32;33395;-67
2021/06/11 04:18:59;;;;;;;5.53;3.53;;;;;;;26.33;41.07;99657.97;4482493;32;33631;-66
2021/06/11 04:21:28;;;;;;;6.93;3.33;;;;;;;26.31;41.10;99655.50;4472680;32;34713;-68
2021/06/11 04:23:58;;;;;;;5.82;2.90;;;;;;;26.31;41.00;99652.75;4454198;32;33555;-68
2021/06/11 04:26:26;;;;;;;6.45;3.03;;;;;;;26.31;41.08;99654.66;4466616;32;33240;-65
2021/06/11 04:28:54;;;;;;;4.65;2.72;;;;;;;26.31;40.98;99651.94;4467955;32;33189;-69
2021/06/11 04:31:22;;;;;;;12.95;3.62;;;;;;;26.29;40.77;99648.59;4473740;32;33862;-67
2021/06/11 04:33:50;;;;;;;17.75;3.72;;;;;;;26.29;40.85;99648.59;4483842;32;34314;-70
2021/06/11 04:36:17;;;;;;;4.82;2.90;;;;;;;26.28;40.93;99655.16;4482219;32;34065;-70
2021/06/11 04:38:58;;;;;;;14.60;3.78;;;;;;;26.30;40.98;99647.50;4483455;32;34594;-69
2021/06/11 04:41:26;;;;;;;11.77;3.42;;;;;;;26.28;40.99;99645.03;4483266;32;33924;-69
2021/06/11 04:43:56;;;;;;;11.90;3.53;;;;;;;26.28;40.77;99645.03;4483552;32;33779;-70
2021/06/11 04:46:24;;;;;;;8.52;3.30;;;;;;;26.29;40.64;99638.47;4482645;32;33308;-70
2021/06/11 04:48:52;;;;;;;13.50;3.10;;;;;;;26.28;40.76;99644.22;4483250;32;33761;-70
2021/06/11 04:51:19;;;;;;;10.15;3.40;;;;;;;26.28;40.82;99646.94;4483377;32;34754;-71
2021/06/11 04:53:47;;;;;;;6.22;3.47;;;;;;;26.27;40.79;99657.06;4481496;32;33673;-72
2021/06/11 04:56:15;;;;;;;5.53;2.85;;;;;;;26.28;40.80;99660.63;4483043;32;33453;-72
2021/06/11 04:58:43;;;;;;;8.00;3.10;;;;;;;26.28;40.74;99666.09;4483221;32;33469;-71
2021/06/11 05:01:11;;;;;;;6.93;2.78;;;;;;;26.28;40.72;99666.91;4481919;32;33831;-71
2021/06/11 05:03:39;;;;;;;8.60;3.20;;;;;;;26.26;40.58;99660.88;4482022;32;33140;-72
2021/06/11 05:06:06;;;;;;;8.82;3.50;;;;;;;26.26;40.68;99660.88;4483202;32;33322;-71
2021/06/11 05:08:34;;;;;;;7.57;3.22;;;;;;;26.28;40.68;99660.63;4483068;32;33496;-71
2021/06/11 05:11:03;;;;;;;7.05;3.17;;;;;;;26.27;40.64;99664.44;4483243;32;34872;-72
2021/06/11 05:13:30;;;;;;;8.75;3.00;;;;;;;26.25;40.63;99661.94;4483019;32;33714;-71
2021/06/11 05:15:58;;;;;;;7.05;2.78;;;;;;;26.25;40.66;99658.37;4483097;32;34119;-72
2021/06/11 05:18:30;;;;;;;8.00;3.22;;;;;;;26.25;40.50;99656.47;4483130;32;34908;-69
2021/06/11 05:20:58;;;;;;;12.40;3.10;;;;;;;26.26;40.58;99658.16;4482121;32;34598;-67
2021/06/11 05:23:25;;;;;;;7.10;2.70;;;;;;;26.26;40.55;99665.53;4481650;32;34836;-67
2021/06/11 05:25:53;;;;;;;5.07;2.60;;;;;;;26.27;40.58;99667.19;4481693;32;33242;-67
2021/06/11 05:28:22;;;;;;;5.90;3.05;;;;;;;26.26;40.65;99668.25;4481619;32;33779;-67
2021/06/11 05:30:50;;;;;;;8.32;2.75;;;;;;;26.26;40.59;99673.72;4481389;32;35248;-67
2021/06/11 05:33:17;;;;;;;7.75;2.90;;;;;;;26.25;40.57;99681.06;4482000;32;34662;-66
2021/06/11 05:35:45;;;;;;;6.37;2.40;;;;;;;26.26;40.55;99671.81;4481582;32;32978;-67
2021/06/11 05:38:13;;;;;;;5.65;2.55;;;;;;;26.26;40.54;99682.75;4480757;32;33879;-67
2021/06/11 05:40:41;;;;;;;7.37;2.53;;;;;;;26.25;40.53;99681.06;4481085;32;33835;-67
2021/06/11 05:43:09;;;;;;;8.05;2.50;;;;;;;26.24;40.42;99681.34;4482137;32;34983;-66
2021/06/11 05:45:36;;;;;;;5.68;2.60;;;;;;;26.23;40.39;99685.16;4482306;32;34721;-68
2021/06/11 05:48:05;;;;;;;7.65;2.70;;;;;;;26.26;40.54;99684.66;4481155;32;34702;-68
2021/06/11 05:50:34;;;;;;;6.57;2.70;;;;;;;26.25;40.53;99689.28;4482584;32;33859;-70
2021/06/11 05:53:02;;;;;;;4.50;2.42;;;;;;;26.26;40.49;99687.41;4482259;32;33956;-68
2021/06/11 05:55:29;;;;;;;5.47;2.30;;;;;;;26.24;40.45;99686.81;4473953;32;34167;-67
2021/06/11 05:57:57;;;;;;;8.65;2.60;;;;;;;26.24;40.46;99684.06;4466680;32;34602;-68
2021/06/11 06:00:25;;;;;;;5.50;2.60;;;;;;;26.24;40.47;99686.81;4466693;32;34456;-69
2021/06/11 06:02:53;;;;;;;4.10;2.55;;;;;;;26.24;40.47;99687.63;4466495;32;34583;-69
2021/06/11 06:05:20;;;;;;;4.55;2.53;;;;;;;26.23;40.47;99690.63;4468329;32;33297;-68
2021/06/11 06:07:48;;;;;;;6.65;2.35;;;;;;;26.24;40.47;99690.38;4468722;32;34812;-67
2021/06/11 06:10:16;;;;;;;9.82;2.80;;;;;;;26.24;40.47;99692.28;4469021;32;33896;-69
2021/06/11 06:12:44;;;;;;;6.53;2.60;;;;;;;26.22;40.38;99692.53;4468922;32;33943;-68
2021/06/11 06:15:11;;;;;;;5.50;2.67;;;;;;;26.22;40.31;99691.72;4471287;32;34140;-68
2021/06/11 06:17:39;;;;;;;4.37;2.55;;;;;;;26.21;40.04;99688.16;4483918;32;33546;-68
2021/06/11 06:20:08;;;;;;;6.15;2.28;;;;;;;26.22;40.42;99688.97;4482965;32;34908;-69
2021/06/11 06:22:40;;;;;;;5.93;2.10;;;;;;;26.22;40.36;99691.72;4470853;32;34857;-67
2021/06/11 06:25:09;;;;;;;4.05;2.17;;;;;;;26.23;40.47;99696.09;4470569;32;33237;-68
2021/06/11 06:27:36;;;;;;;5.15;2.28;;;;;;;26.22;40.19;99698.00;4484374;32;34720;-67
2021/06/11 06:30:05;;;;;;;5.03;2.60;;;;;;;26.21;40.38;99693.63;4484563;32;34578;-67
2021/06/11 06:32:33;;;;;;;5.97;2.50;;;;;;;26.22;40.28;99697.19;4473966;32;35022;-69
2021/06/11 06:35:01;;;;;;;6.72;2.30;;;;;;;26.22;40.35;99692.53;4468743;32;33462;-67
2021/06/11 06:37:29;;;;;;;5.05;2.50;;;;;;;26.20;40.31;99689.19;4468844;32;34638;-70
2021/06/11 06:39:57;;;;;;;5.10;2.40;;;;;;;26.20;40.39;99692.75;4468915;32;33563;-68
2021/06/11 06:42:25;;;;;;;5.57;2.50;;;;;;;26.22;40.41;99688.97;4468710;32;34628;-68
2021/06/11 06:44:52;;;;;;;4.87;2.60;;;;;;;26.22;40.38;99680.78;4468790;32;33876;-69
2021/06/11 06:47:20;;;;;;;6.20;2.65;;;;;;;26.22;40.40;99695.28;4468709;32;33816;-68
2021/06/11 06:49:48;;;;;;;3.72;1.90;;;;;;;26.18;40.25;99689.47;4468869;32;33956;-68
2021/06/11 06:52:16;;;;;;;6.07;2.37;;;;;;;26.20;40.36;99690.03;4468746;32;33845;-68
2021/06/11 06:54:43;;;;;;;5.60;2.25;;;;;;;26.22;40.34;99697.19;4468921;32;33381;-68
2021/06/11 06:57:11;;;;;;;4.55;2.25;;;;;;;26.23;40.29;99693.38;4468304;32;33371;-68
2021/06/11 06:59:39;;;;;;;5.60;2.58;;;;;;;26.23;40.30;99694.19;4476028;32;33568;-70
2021/06/11 07:02:07;;;;;;;5.15;2.60;;;;;;;26.25;40.27;99693.94;4483688;32;34520;-67
2021/06/11 07:04:35;;;;;;;4.93;2.05;;;;;;;26.25;40.28;99689.28;4483946;32;34065;-76
2021/06/11 07:07:03;;;;;;;4.37;2.40;;;;;;;26.25;40.24;99692.03;4482935;32;33721;-69
2021/06/11 07:09:31;;;;;;;8.95;2.70;;;;;;;26.29;40.12;99695.91;4484223;32;33926;-70
2021/06/11 07:11:58;;;;;;;7.43;3.10;;;;;;;26.29;40.01;99698.66;4484210;32;33008;-73
2021/06/11 07:14:27;;;;;;;7.62;2.50;;;;;;;26.32;39.84;99697.34;4484409;32;33249;-72
2021/06/11 07:16:55;;;;;;;6.03;2.30;;;;;;;26.32;39.70;99694.59;4480993;32;34773;-72
2021/06/11 07:19:22;;;;;;;6.90;2.40;;;;;;;26.33;39.58;99699.00;4484219;32;33605;-73
2021/06/11 07:21:50;;;;;;;7.00;2.50;;;;;;;26.33;39.68;99699.81;4483871;32;33949;-75
2021/06/11 07:24:17;;;;;;;7.12;2.47;;;;;;;26.34;39.67;99703.37;4484057;32;34416;-70
2021/06/11 07:26:45;;;;;;;6.82;2.70;;;;;;;26.35;39.64;99705.06;4484062;32;34414;-77
2021/06/11 07:29:13;;;;;;;6.97;2.40;;;;;;;26.36;39.53;99698.50;4484379;32;34537;-83
2021/06/11 07:31:40;;;;;;;6.12;2.30;;;;;;;26.38;39.56;99699.06;4484080;32;33700;-75
2021/06/11 07:34:08;;;;;;;4.82;2.15;;;;;;;26.39;39.45;99707.06;4483992;32;33944;-75
2021/06/11 07:36:36;;;;;;;15.30;2.62;;;;;;;26.41;39.35;99701.31;4483878;32;33852;-75
2021/06/11 07:39:03;;;;;;;4.20;2.33;;;;;;;26.43;39.22;99701.94;4484263;32;33354;-71
2021/06/11 07:41:31;;;;;;;5.72;2.22;;;;;;;26.43;39.11;99701.94;4483492;32;33779;-73
2021/06/11 07:43:59;;;;;;;5.30;2.40;;;;;;;26.43;38.98;99708.22;4469604;32;33332;-70
2021/06/11 07:46:26;;;;;;;4.12;2.03;;;;;;;26.45;38.89;99706.09;4483791;32;33740;-71
2021/06/11 07:48:54;;;;;;;7.18;2.33;;;;;;;26.44;38.78;99704.44;4484131;32;33722;-69
2021/06/11 07:51:22;;;;;;;8.65;2.83;;;;;;;26.46;38.74;99701.44;4484139;32;33539;-71
2021/06/11 07:53:49;;;;;;;5.40;2.35;;;;;;;26.47;38.65;99702.25;4484112;32;33316;-71
2021/06/11 07:56:17;;;;;;;7.70;2.45;;;;;;;26.49;38.57;99700.09;4483850;32;34418;-69
2021/06/11 07:58:45;;;;;;;5.37;2.37;;;;;;;26.51;38.55;99700.69;4483953;32;33930;-69
2021/06/11 08:01:12;;;;;;;7.28;2.97;;;;;;;26.52;38.53;99699.59;4484240;32;34032;-69
2021/06/11 08:03:40;;;;;;;7.28;2.42;;;;;;;26.54;38.39;99698.28;4484135;32;33206;-76
2021/06/11 08:06:07;;;;;;;7.22;2.60;;;;;;;26.53;38.18;99702.09;4484018;32;33833;-70
2021/06/11 08:08:35;;;;;;;8.40;2.55;;;;;;;26.56;38.25;99698.03;4484123;32;34727;-68
2021/06/11 08:11:03;;;;;;;8.80;2.87;;;;;;;26.57;38.27;99692.31;4483914;32;34550;-73
2021/06/11 08:13:30;;;;;;;4.65;2.87;;;;;;;26.59;37.77;99690.16;4483997;32;34061;-68
2021/06/11 08:15:58;;;;;;;6.57;2.55;;;;;;;26.63;37.52;99695.97;4483523;32;34525;-69
2021/06/11 08:18:26;;;;;;;7.05;2.95;;;;;;;26.62;37.55;99686.91;4484125;32;34700;-68
2021/06/11 08:20:54;;;;;;;9.95;2.90;;;;;;;26.64;37.45;99686.66;4483997;32;34555;-76
2021/06/11 08:23:21;;;;;;;6.18;2.87;;;;;;;26.65;37.40;99691.88;4483594;32;34121;-68
2021/06/11 08:25:49;;;;;;;7.62;2.85;;;;;;;26.67;37.33;99694.34;4483664;32;34816;-65
2021/06/11 08:28:17;;;;;;;8.80;3.08;;;;;;;26.69;37.47;99698.53;4483752;32;34825;-66
2021/06/11 08:30:44;;;;;;;5.75;3.08;;;;;;;26.73;37.37;99700.75;4483979;32;34586;-69
2021/06/11 08:33:13;;;;;;;5.55;3.05;;;;;;;26.74;37.30;99699.69;4483588;32;33337;-73
2021/06/11 08:35:41;;;;;;;5.37;2.87;;;;;;;26.74;37.38;99705.97;4483676;32;33721;-73
2021/06/11 08:38:09;;;;;;;6.97;3.10;;;;;;;26.73;37.52;99703.50;4483294;32;33663;-74
2021/06/11 08:40:37;;;;;;;9.80;3.35;;;;;;;26.72;37.54;99702.69;4483421;32;34562;-72
2021/06/11 08:43:06;;;;;;;5.25;3.15;;;;;;;26.70;37.57;99702.91;4482427;32;33367;-73
2021/06/11 08:45:34;;;;;;;5.32;2.70;;;;;;;26.69;37.62;99701.25;4483172;32;33861;-71
2021/06/11 08:48:02;;;;;;;6.72;3.05;;;;;;;26.68;37.71;99696.87;4482816;32;33988;-72
2021/06/11 08:50:30;;;;;;;8.57;2.78;;;;;;;26.68;37.66;99698.78;4482369;32;33741;-72
2021/06/11 08:52:58;;;;;;;8.27;3.30;;;;;;;26.66;37.84;99696.28;4482875;32;33007;-72
2021/06/11 08:55:26;;;;;;;9.60;3.35;;;;;;;26.65;37.88;99700.09;4481922;32;33707;-74
2021/06/11 08:57:54;;;;;;;6.07;3.08;;;;;;;26.65;37.87;99697.34;4483460;32;33797;-74
2021/06/11 09:00:22;;;;;;;6.70;2.87;;;;;;;26.64;37.89;99698.44;4481501;32;33928;-73
2021/06/11 09:03:11;;;;;;;10.32;3.12;;;;;;;26.65;37.94;99700.09;4481921;32;33538;-73
2021/06/11 09:05:43;;;;;;;6.30;2.92;;;;;;;26.66;37.93;99701.75;4467755;32;33733;-75
2021/06/11 09:08:14;;;;;;;8.30;3.00;;;;;;;26.63;37.98;99702.25;4466426;32;34806;-74
2021/06/11 09:10:43;;;;;;;8.00;3.15;;;;;;;26.62;38.04;99695.13;4467374;32;33856;-72
2021/06/11 09:13:15;;;;;;;8.50;3.08;;;;;;;26.62;38.02;99697.84;4467601;32;33395;-74
2021/06/11 09:15:43;;;;;;;4.40;2.37;;;;;;;26.61;38.19;99709.88;4453961;32;33495;-74
2021/06/11 09:18:18;;;;;;;11.95;3.20;;;;;;;26.61;38.10;99698.09;4466177;32;33927;-70
2021/06/11 09:20:45;;;;;;;4.97;2.90;;;;;;;26.61;38.20;99693.47;4471703;32;33779;-73
2021/06/11 09:23:13;;;;;;;6.20;2.85;;;;;;;26.61;38.16;99700.84;4482934;32;34245;-75
2021/06/11 09:25:42;;;;;;;7.72;3.10;;;;;;;26.61;38.13;99700.84;4482817;32;34866;-72
2021/06/11 09:28:12;;;;;;;6.45;3.28;;;;;;;26.60;38.22;99691.81;4483045;32;33849;-72
2021/06/11 09:30:48;;;;;;;4.80;2.80;;;;;;;26.60;38.21;99700.03;4483152;32;33872;-71
2021/06/11 09:33:18;;;;;;;11.32;3.30;;;;;;;26.60;38.25;99694.53;4482955;32;34342;-70
2021/06/11 09:35:48;;;;;;;6.03;3.05;;;;;;;26.59;38.36;99692.06;4481680;32;33403;-73
2021/06/11 09:38:18;;;;;;;8.27;3.00;;;;;;;26.60;38.33;99688.25;4482730;32;33930;-72
2021/06/11 09:40:59;;;;;;;11.43;3.30;;;;;;;26.61;38.48;99688.00;4484615;32;34241;-71
2021/06/11 09:43:29;;;;;;;8.35;3.17;;;;;;;26.63;38.29;99679.53;4484620;32;33364;-71
2021/06/11 09:46:13;;;;;;;5.13;2.80;;;;;;;26.60;38.45;99678.12;4483963;32;33829;-72
2021/06/11 09:48:48;;;;;;;6.18;3.03;;;;;;;26.61;38.38;99682.50;4484868;32;33810;-72
2021/06/11 09:51:18;;;;;;;7.80;2.97;;;;;;;26.61;38.48;99682.50;4484408;32;34359;-71
2021/06/11 09:53:46;;;;;;;8.27;3.12;;;;;;;26.60;38.44;99672.66;4484988;32;33515;-71
2021/06/11 09:56:23;;;;;;;6.90;3.80;;;;;;;26.61;38.43;99676.22;4483600;32;34373;-72
2021/06/11 09:58:51;;;;;;;7.72;3.50;;;;;;;26.61;38.46;99676.22;4484090;32;33890;-73
2021/06/11 10:01:19;;;;;;;9.23;3.40;;;;;;;26.60;38.48;99680.03;4484834;32;33742;-71
2021/06/11 10:03:51;;;;;;;6.53;3.12;;;;;;;26.60;38.41;99674.56;4484319;32;33376;-68
2021/06/11 10:06:19;;;;;;;8.80;3.20;;;;;;;26.59;38.38;99662.78;4483546;32;33720;-72
2021/06/11 10:08:48;;;;;;;8.15;3.15;;;;;;;26.59;38.42;99667.44;4484761;32;33815;-72
2021/06/11 10:11:30;;;;;;;6.32;2.97;;;;;;;26.57;38.46;99669.59;4484833;32;33637;-72
2021/06/11 10:13:59;;;;;;;6.85;2.87;;;;;;;26.57;38.39;99666.84;4484760;32;34193;-71
2021/06/11 10:16:27;;;;;;;5.78;2.85;;;;;;;26.58;38.36;99665.75;4484326;32;34411;-73
2021/06/11 10:18:54;;;;;;;5.10;2.97;;;;;;;26.58;38.33;99657.56;4470390;32;33827;-72
2021/06/11 10:21:28;;;;;;;7.70;3.50;;;;;;;26.58;38.51;99669.34;4484606;32;33323;-72
2021/06/11 10:23:55;;;;;;;6.25;3.00;;;;;;;26.57;38.44;99656.72;4484719;32;33322;-73
2021/06/11 10:26:23;;;;;;;6.43;3.03;;;;;;;26.57;38.41;99664.94;4483661;32;34917;-73
2021/06/11 10:28:51;;;;;;;6.18;3.15;;;;;;;26.56;38.46;99649.59;4484526;32;34936;-69
2021/06/11 10:31:20;;;;;;;6.05;2.85;;;;;;;26.55;38.54;99661.62;4470672;32;33774;-73
2021/06/11 10:33:52;;;;;;;7.20;3.70;;;;;;;26.55;38.55;99666.28;4470749;32;33278;-72
2021/06/11 10:36:30;;;;;;;7.35;3.25;;;;;;;26.56;38.45;99662.47;4482624;31;34358;-73
2021/06/11 10:39:02;;;;;;;6.45;3.15;;;;;;;26.55;38.43;99658.91;4484837;32;33921;-73
2021/06/11 10:41:52;;;;;;;5.80;2.95;;;;;;;26.54;38.49;99664.63;4484362;32;34660;-70
2021/06/11 10:44:32;;;;;;;7.78;3.37;;;;;;;26.54;38.59;99676.41;4484514;32;33666;-71
2021/06/11 10:47:15;;;;;;;8.93;3.42;;;;;;;26.54;38.58;99681.06;4484638;32;33827;-73
2021/06/11 10:49:55;;;;;;;7.82;3.33;;;;;;;26.52;38.63;99691.41;4484421;32;34704;-73
2021/06/11 10:52:32;;;;;;;6.55;3.05;;;;;;;26.49;38.77;99706.41;4483939;32;33846;-72
2021/06/11 10:55:15;;;;;;;9.02;3.40;;;;;;;26.48;38.89;99706.66;4484638;32;33182;-73
2021/06/11 10:57:43;;;;;;;6.93;3.30;;;;;;;26.43;39.13;99710.13;4484239;32;34618;-73
2021/06/11 11:00:34;;;;;;;6.40;3.10;;;;;;;26.39;39.26;99728.09;4484392;32;33953;-72
2021/06/11 11:03:04;;;;;;;8.60;3.90;;;;;;;26.42;39.19;99720.22;4482877;32;35162;-73
2021/06/11 11:05:38;;;;;;;9.30;3.55;;;;;;;26.43;39.35;99729.28;4484362;32;33382;-71
2021/06/11 11:08:10;;;;;;;6.68;3.17;;;;;;;26.47;39.33;99733.19;4482839;32;33694;-73
2021/06/11 11:10:45;;;;;;;7.40;3.40;;;;;;;26.43;39.66;99730.09;4482621;32;33926;-73
2021/06/11 11:13:17;;;;;;;11.30;3.78;;;;;;;26.40;39.84;99718.81;4484495;32;34268;-73
2021/06/11 11:15:49;;;;;;;7.37;3.37;;;;;;;26.41;39.71;99713.09;4482264;32;33989;-73
2021/06/11 11:18:32;;;;;;;10.35;3.50;;;;;;;26.41;39.80;99712.28;4479534;32;33810;-64
2021/06/11 11:21:00;;;;;;;18.25;4.30;;;;;;;26.42;39.97;99719.41;4471894;32;34776;-75
2021/06/11 11:23:28;;;;;;;23.12;4.95;;;;;;;26.42;40.24;99719.41;4483312;32;34477;-75
2021/06/11 11:25:55;;;;;;;20.67;5.07;;;;;;;26.42;40.52;99708.44;4477639;32;34357;-75
2021/06/11 11:28:23;;;;;;;16.77;4.10;;;;;;;26.42;40.71;99705.72;4484315;32;33623;-76
2021/06/11 11:30:51;;;;;;;15.65;4.95;;;;;;;26.43;40.70;99718.34;4483822;32;33829;-77
2021/06/11 11:33:19;;;;;;;15.90;4.50;;;;;;;26.42;40.67;99709.28;4484351;32;34015;-77
2021/06/11 11:35:49;;;;;;;20.88;4.28;;;;;;;26.44;40.63;99703.59;4484186;32;33591;-77
2021/06/11 11:38:16;;;;;;;17.75;4.43;;;;;;;26.44;40.67;99706.34;4484176;31;35326;-78
2021/06/11 11:40:44;;;;;;;18.67;4.80;;;;;;;26.45;40.75;99699.78;4484011;32;35120;-76
2021/06/11 11:43:11;;;;;;;17.20;4.80;;;;;;;26.44;40.98;99693.50;4482956;32;33840;-75
2021/06/11 11:45:40;;;;;;;24.90;5.80;;;;;;;26.44;41.03;99688.00;4484167;32;33278;-73